sensor_id;sensor_type;location;lat;lon;timestamp;pressure;altitude;pressure_sealevel;temperature;humidity
79316;BME280;68779;50.036;19.964;2024-02-21T00:05:55;102409.89;;;12.32;53.02
79316;BME280;68779;50.036;19.964;2024-02-21T00:36:11;102422.85;;;12.05;53.29
79316;BME280;68779;50.036;19.964;2024-02-21T01:06:27;102389.21;;;12.17;53.46
79316;BME280;68779;50.036;19.964;2024-02-21T01:36:46;102363.05;;;12.15;53.48
79316;BME280;68779;50.036;19.964;2024-02-21T02:07:02;102336.03;;;11.52;54.58
79316;BME280;68779;50.036;19.964;2024-02-21T02:37:17;102335.12;;;11.64;54.32
79316;BME280;68779;50.036;19.964;2024-02-21T03:07:33;102321.58;;;11.75;54.12
79316;BME280;68779;50.036;19.964;2024-02-21T03:37:49;102308.35;;;11.58;54.28
79316;BME280;68779;50.036;19.964;2024-02-21T04:08:06;102302.94;;;11.45;54.90
79316;BME280;68779;50.036;19.964;2024-02-21T05:39:12;102281.46;;;11.17;55.70
79316;BME280;68779;50.036;19.964;2024-02-21T06:09:27;102264.24;;;12.00;54.39
79316;BME280;68779;50.036;19.964;2024-02-21T06:39:41;102248.36;;;12.51;52.80
79316;BME280;68779;50.036;19.964;2024-02-21T07:10:00;102250.94;;;12.41;52.35
79316;BME280;68779;50.036;19.964;2024-02-21T07:40:16;102237.00;;;12.11;52.94
79316;BME280;68779;50.036;19.964;2024-02-21T08:10:32;102204.61;;;13.60;48.53
79316;BME280;68779;50.036;19.964;2024-02-21T08:40:48;102188.19;;;13.71;47.10
79316;BME280;68779;50.036;19.964;2024-02-21T09:11:02;102155.98;;;14.86;44.47
79316;BME280;68779;50.036;19.964;2024-02-21T09:41:23;102164.52;;;15.02;44.96
79316;BME280;68779;50.036;19.964;2024-02-21T10:11:38;102137.69;;;16.01;41.49
79316;BME280;68779;50.036;19.964;2024-02-21T10:41:53;102057.94;;;23.25;30.48
79316;BME280;68779;50.036;19.964;2024-02-21T11:12:11;102054.62;;;19.20;34.78
79316;BME280;68779;50.036;19.964;2024-02-21T11:42:29;101982.83;;;25.70;25.98
79316;BME280;68779;50.036;19.964;2024-02-21T12:12:43;101980.15;;;18.80;34.96
79316;BME280;68779;50.036;19.964;2024-02-21T12:42:57;101969.35;;;17.18;38.11
79316;BME280;68779;50.036;19.964;2024-02-21T13:13:11;101940.42;;;16.88;39.99
79316;BME280;68779;50.036;19.964;2024-02-21T13:43:25;101923.41;;;16.22;39.91
79316;BME280;68779;50.036;19.964;2024-02-21T14:13:39;101913.41;;;15.39;43.67
79316;BME280;68779;50.036;19.964;2024-02-21T14:43:55;101899.84;;;15.38;43.70
79316;BME280;68779;50.036;19.964;2024-02-21T15:14:15;101855.34;;;15.63;45.12
79316;BME280;68779;50.036;19.964;2024-02-21T15:44:34;101833.73;;;14.67;47.99
79316;BME280;68779;50.036;19.964;2024-02-21T16:14:51;101835.29;;;13.93;48.20
79316;BME280;68779;50.036;19.964;2024-02-21T16:45:15;101802.65;;;14.40;46.29
79316;BME280;68779;50.036;19.964;2024-02-21T17:15:29;101780.74;;;13.82;48.19
79316;BME280;68779;50.036;19.964;2024-02-21T17:45:44;101749.52;;;13.85;46.98
79316;BME280;68779;50.036;19.964;2024-02-21T18:32:57;101720.66;;;13.23;47.22
79316;BME280;68779;50.036;19.964;2024-02-21T19:03:15;101698.84;;;12.93;48.10
79316;BME280;68779;50.036;19.964;2024-02-21T19:33:30;101660.87;;;12.41;48.56
79316;BME280;68779;50.036;19.964;2024-02-21T20:03:45;101641.97;;;11.77;49.60
79316;BME280;68779;50.036;19.964;2024-02-21T20:34:03;101639.70;;;11.30;49.68
79316;BME280;68779;50.036;19.964;2024-02-21T21:04:18;101600.04;;;11.16;50.77
79316;BME280;68779;50.036;19.964;2024-02-21T21:34:34;101581.10;;;10.83;52.01
79316;BME280;68779;50.036;19.964;2024-02-21T22:35:18;101504.62;;;10.97;51.67
79316;BME280;68779;50.036;19.964;2024-02-21T23:05:33;101446.90;;;10.62;53.22
79316;BME280;68779;50.036;19.964;2024-02-21T23:35:47;101413.93;;;10.56;52.58
